Aeroporto :
LOGIN :

Iscrizione | Disclaimer

   EN    FR    IT 

 










Sommario :    VFR   VFR Marginale   IFR   IFR Intensivo   IFR Molto Intensivo
Visibilità : 
Base nubi : 
>= 8 km
>= 3000ft
5 / 8 km
1000 / 3000 ft
1500m / 5 km
500 / 1000 ft
800 / 1500m
200 / 500 ft
< 800m
< 200 ft
Simboli :   Temporali  Nebbia  Neve Forte  Precipitazioni Forti  Vento > 20 kt
SIGMETs :   Varie  Temporali  Ghiacco  Turbolenza  Onda orograficha  Ceneri Vulcaniche






- Altitudine del aeroporto : 1079 ft


ETIK - Illesheim Air Base

ULTIMO METAR :
  • 191726Z AUTO 30004KT 9999 SCT012 BKN017 OVC023 05/05 A3005 RMK AO2 CIG 012V017 SLP188 $

METARs OBSOLETI :
  • 191656Z AUTO 31003KT 9999 OVC013 05/05 A3005 RMK AO2 SLP188 T00530053 $
  • 191641Z AUTO 33004KT 9999 BKN014 OVC033 06/06 A3005 RMK AO2 SLP188 $
  • 191556Z AUTO 30003KT 9999 OVC028 05/05 A3004 RMK AO2 SLP185 T00540054 $
  • 191456Z AUTO 27003KT 9999 OVC032 06/06 A3003 RMK AO2 SLP180 T00570057 53001 $

TAF AMD TAF ETIK
Valido dal 19 a 17 ore il 20 a 21 ore UTC


191725Z 1917/2021 30005KT 9999 OVC013 620304 QNH3004INS
BECMG 1919/1920 30004KT 9999 OVC007 QNH3003INS
BECMG 2005/2006 07005KT 8000 BR OVC007 QNH3002INS
BECMG 2010/2011 08005KT 9999 NSW OVC007 QNH2998INS
BECMG 2015/2016 07005KT 9999 BKN020 QNH2995INS TX06/1915Z TNM01/2003Z



MetMap, La meteo Aeronautica in un colpo d'occhio ! - Copyright ORBIFLY Dicembre 2007 - Disclaimer

ORBIFLY MET'MAP TEAM :

Programmazione e sviluppo : Alexandra Zaïnal
Concezione e sviluppo : Baudouin d'Aumeries
Co-Programmazione e sviluppo : Marc-Olivier Méhu
Supporto tecnico e logistico : Manuel Goepfert
Aiuto per la traduzione : Arnaldo La Scala

Contatto : metmap@orbifly.com




FONTI E CREDITI :

   NOAA